Diablo — WDG2170 — position and weather

sailwx.info

Track history (hours):
 
Tides and Currents Weather Stations Pressure Air Temp Water Temp Dewpoint Dewpoint Depression Visibility Wind Speed Wind Dir Waves Ship Positions

Diablo

Owner: Harley Marine Services, Inc, Seattle, WA. More information available from US FCC via Universal Licensing System and Coast Guard Vessel Documentation Center.

Last reported at 2017-Dec-11 14:15 UTC. Time now 2017-Dec-14 00:28 UTC.
Position N 29°47' W 095°06'.

Length 24 m; draft 2.6 m.

Type: Tug. MMSI: 367512880.

Date/timePositionNaut miles runAvg speedWind from/ knotsBaromVisibWave heightAir tempDewpointWater temp
2017-Dec-11 14:15N 29°47' W 095°06'0 0.0
2017-Dec-11 14:01N 29°47' W 095°06'0 0.0
2017-Dec-11 13:31N 29°47' W 095°06'0 0.0
2017-Dec-11 12:48N 29°47' W 095°06'0 0.0
2017-Dec-11 12:21N 29°47' W 095°06'0 0.0
2017-Dec-11 11:57N 29°47' W 095°06'0 0.0
2017-Dec-11 11:30N 29°47' W 095°06'0 0.0
2017-Dec-11 10:27N 29°47' W 095°06'0 0.0
2017-Dec-11 09:15N 29°47' W 095°06'0 0.0
2017-Dec-11 08:48N 29°47' W 095°06'0 0.0
2017-Dec-11 06:51N 29°47' W 095°06'0 0.0
2017-Dec-11 06:18N 29°47' W 095°06'0 0.0
2017-Dec-11 05:48N 29°47' W 095°06'0 0.0
2017-Dec-11 05:21N 29°47' W 095°06'0 0.0
2017-Dec-11 02:51N 29°47' W 095°06'0 0.0
2017-Dec-11 02:21N 29°47' W 095°06'0 0.0
2017-Dec-11 00:45N 29°47' W 095°06'0 0.0
2017-Dec-11 00:24N 29°47' W 095°06'0 0.0
2017-Dec-10 22:42N 29°47' W 095°06'0 0.0
2017-Dec-10 22:23N 29°47' W 095°06'0 0.0
2017-Dec-10 21:57N 29°47' W 095°06'0 0.0
2017-Dec-10 21:25N 29°47' W 095°06'0 0.0
2017-Dec-10 20:57N 29°47' W 095°06'0 0.0
2017-Dec-10 20:22N 29°47' W 095°06'0 0.0
2017-Dec-10 19:58N 29°47' W 095°06'0 0.0
2017-Dec-10 19:30N 29°47' W 095°06'0 0.0
2017-Dec-10 18:59N 29°47' W 095°06'0 0.0
2017-Dec-10 18:19N 29°47' W 095°06'0 0.0
2017-Dec-10 17:48N 29°47' W 095°06'0 0.0
2017-Dec-10 17:19N 29°47' W 095°06'0 0.0
2017-Dec-10 16:54N 29°47' W 095°06'0 0.0
2017-Dec-10 16:27N 29°47' W 095°06'0 0.0
2017-Dec-10 15:23N 29°47' W 095°06'0 0.0
2017-Dec-10 15:00N 29°47' W 095°06'0 0.0
2017-Dec-10 14:30N 29°47' W 095°06'0 0.0
2017-Dec-10 13:59N 29°47' W 095°06'0 0.0
2017-Dec-10 13:30N 29°47' W 095°06'1 3.0
2017-Dec-10 13:00N 29°45' W 095°06'4 7.5
2017-Dec-10 12:30N 29°45' W 095°10'4 7.7
2017-Dec-10 11:59N 29°43' W 095°14'1 2.9
2017-Dec-10 11:30N 29°44' W 095°16'0 0.0
2017-Dec-10 11:00N 29°44' W 095°16'0 0.0
2017-Dec-10 10:30N 29°44' W 095°16'0 0.0
2017-Dec-10 10:00N 29°44' W 095°16'0 0.0
2017-Dec-10 09:30N 29°44' W 095°16'0 0.0
2017-Dec-10 09:00N 29°44' W 095°16'2 3.4
2017-Dec-10 08:29N 29°43' W 095°14'3 6.8
2017-Dec-10 07:59N 29°45' W 095°10'4 6.8
2017-Dec-10 07:28N 29°45' W 095°06'1 2.8
2017-Dec-10 07:00N 29°46' W 095°06'1 0.0
2017-Dec-09 19:02N 29°47' W 095°06'0 0.2
2017-Dec-09 18:47N 29°47' W 095°06'1 2.8
2017-Dec-09 18:30N 29°46' W 095°06'2 4.7
2017-Dec-09 18:00N 29°45' W 095°04'3 6.5
2017-Dec-09 17:30N 29°42' W 095°01'2 3.1
2017-Dec-09 17:00N 29°41' W 095°00'0 0.0
2017-Dec-09 16:30N 29°41' W 095°00'0 0.0
2017-Dec-09 16:00N 29°41' W 095°00'0 0.0
2017-Dec-09 15:30N 29°41' W 095°00'0 0.0
2017-Dec-09 15:00N 29°41' W 095°00'0 0.0
2017-Dec-09 14:30N 29°41' W 095°00'0 0.0
2017-Dec-09 14:00N 29°41' W 095°00'0 0.0
2017-Dec-09 13:30N 29°41' W 095°00'0 0.0
2017-Dec-09 13:00N 29°41' W 095°00'0 0.0
2017-Dec-09 12:30N 29°41' W 095°00'0 0.0
2017-Dec-09 12:00N 29°41' W 095°00'0 0.0
2017-Dec-09 11:30N 29°41' W 095°00'0 0.0
2017-Dec-09 11:00N 29°41' W 095°00'0 0.0
2017-Dec-09 10:30N 29°41' W 095°00'0 0.0
2017-Dec-09 10:00N 29°41' W 095°00'1 2.4
2017-Dec-09 09:30N 29°42' W 095°00'4 7.2
2017-Dec-09 08:59N 29°44' W 095°04'3 5.3
2017-Dec-09 08:30N 29°44' W 095°07'3 5.7
2017-Dec-09 07:58N 29°45' W 095°10'0 0.0
2017-Dec-09 07:28N 29°45' W 095°10'0 0.0
2017-Dec-09 06:58N 29°45' W 095°10'0 0.0
2017-Dec-09 06:22N 29°45' W 095°10'0 0.0
2017-Dec-09 05:58N 29°45' W 095°10'0 0.0
2017-Dec-09 05:28N 29°45' W 095°10'0 0.0
2017-Dec-09 04:55N 29°45' W 095°10'0 0.0
2017-Dec-09 04:28N 29°45' W 095°10'0 0.0
2017-Dec-09 03:58N 29°45' W 095°10'0 0.0
2017-Dec-09 03:28N 29°45' W 095°10'0 0.0
2017-Dec-09 02:58N 29°45' W 095°10'0 0.0
2017-Dec-09 02:25N 29°45' W 095°10'0 0.0
2017-Dec-09 01:49N 29°45' W 095°10'0 0.0
2017-Dec-09 01:28N 29°45' W 095°10'0 0.0
2017-Dec-09 00:58N 29°45' W 095°10'0 0.0
2017-Dec-08 23:10N 29°45' W 095°10'0 0.0
2017-Dec-08 22:58N 29°45' W 095°10'0 0.0
2017-Dec-08 22:28N 29°45' W 095°10'0 0.0
2017-Dec-08 21:58N 29°45' W 095°10'0 0.0
2017-Dec-08 21:10N 29°45' W 095°10'0 0.0
2017-Dec-08 20:56N 29°45' W 095°10'0 0.0
2017-Dec-08 20:30N 29°45' W 095°10'2 4.8
2017-Dec-08 20:00N 29°44' W 095°07'3 0.1
2017-Dec-08 01:52N 29°47' W 095°06'1 1.6
2017-Dec-08 01:25N 29°46' W 095°06'2 4.4
2017-Dec-08 01:00N 29°44' W 095°07'3 1.5
2017-Dec-07 22:56N 29°45' W 095°10'0 0.0
2017-Dec-07 22:23N 29°45' W 095°10'0 0.0
2017-Dec-07 21:59N 29°45' W 095°10'0 0.0
2017-Dec-07 21:26N 29°45' W 095°10'0 0.0
2017-Dec-07 20:59N 29°45' W 095°10'0 0.0
2017-Dec-07 16:50N 29°45' W 095°10'0 0.2
2017-Dec-07 16:30N 29°45' W 095°10'4 4.0
2017-Dec-07 15:36N 29°46' W 095°06'0 0.1
2017-Dec-07 13:30N 29°46' W 095°06'0 0.0
2017-Dec-07 06:06N 29°46' W 095°06'0 0.0
2017-Dec-07 03:09N 29°46' W 095°06'0 0.1
2017-Dec-07 02:50N 29°46' W 095°06'0 0.9
2017-Dec-07 02:29N 29°45' W 095°06'2 3.3
2017-Dec-07 02:00N 29°44' W 095°07'4 7.3
2017-Dec-07 01:30N 29°45' W 095°11'3 6.0
2017-Dec-07 01:01N 29°43' W 095°14'2 3.6
2017-Dec-07 00:19N 29°44' W 095°17'0 0.0
2017-Dec-06 23:55N 29°44' W 095°17'0 0.0
2017-Dec-06 23:28N 29°44' W 095°17'0 0.0
2017-Dec-06 23:00N 29°44' W 095°17'0 0.0
2017-Dec-06 22:30N 29°44' W 095°17'0 0.0
2017-Dec-06 22:00N 29°44' W 095°17'0 0.0
2017-Dec-06 21:30N 29°44' W 095°17'1 2.0
2017-Dec-06 21:00N 29°44' W 095°16'  
2017-Dec-04 05:14N 29°59' W 090°24'0 0.0
2017-Dec-04 04:50N 29°59' W 090°24'0 0.0
2017-Dec-04 04:26N 29°59' W 090°24'0 0.0
2017-Dec-04 03:44N 29°59' W 090°24'24583.8
2017-Dec-04 00:49N 29°47' W 095°06'1 2.6
2017-Dec-04 00:29N 29°46' W 095°06'3 4.9
2017-Dec-03 23:57N 29°44' W 095°08'3 6.4
2017-Dec-03 23:30N 29°45' W 095°11'0 0.0
2017-Dec-03 23:00N 29°45' W 095°11'0 0.0
2017-Dec-03 22:29N 29°45' W 095°11'0 0.0
2017-Dec-03 22:00N 29°45' W 095°11'0 0.0
2017-Dec-03 21:30N 29°45' W 095°11'0 0.0
2017-Dec-03 21:00N 29°45' W 095°11'0 0.0
2017-Dec-03 20:30N 29°45' W 095°11'0 0.0
2017-Dec-03 19:28N 29°45' W 095°11'0 0.0
2017-Dec-03 18:58N 29°45' W 095°11'0 0.0
2017-Dec-03 18:22N 29°45' W 095°11'0 0.0
2017-Dec-03 17:55N 29°45' W 095°11'0 0.0
2017-Dec-03 17:28N 29°45' W 095°11'0 0.0
2017-Dec-03 16:13N 29°45' W 095°11'0 0.0
2017-Dec-03 15:58N 29°45' W 095°11'0 0.0
2017-Dec-03 15:25N 29°45' W 095°11'0 0.0
2017-Dec-03 14:58N 29°45' W 095°11'0 0.0
2017-Dec-03 14:25N 29°45' W 095°11'0 0.0
2017-Dec-03 13:04N 29°45' W 095°11'0 0.0
2017-Dec-03 12:58N 29°45' W 095°11'0 0.0
2017-Dec-03 12:13N 29°45' W 095°11'0 0.0
2017-Dec-03 10:25N 29°45' W 095°11'0 0.0
2017-Dec-03 01:41N 29°45' W 095°11'0 0.5
2017-Dec-03 01:30N 29°45' W 095°11'3 5.6
2017-Dec-03 01:00N 29°44' W 095°08'3 5.7
2017-Dec-03 00:30N 29°46' W 095°06'1 1.2
2017-Dec-02 23:50N 29°47' W 095°06'0 0.0
2017-Dec-02 23:27N 29°47' W 095°06'0 0.0
2017-Dec-02 22:52N 29°47' W 095°06'0 0.0
2017-Dec-02 20:49N 29°47' W 095°06'0 0.0
2017-Dec-02 20:19N 29°47' W 095°06'0 0.0
2017-Dec-02 19:54N 29°47' W 095°06'0 0.0
2017-Dec-02 17:13N 29°47' W 095°06'1 2.2
2017-Dec-02 16:53N 29°46' W 095°06'1 2.8
2017-Dec-02 16:30N 29°46' W 095°05'2 4.3
2017-Dec-02 15:57N 29°44' W 095°03'0 0.2
2017-Dec-02 15:30N 29°44' W 095°03'0 0.0
2017-Dec-02 15:00N 29°44' W 095°03'0 0.0
2017-Dec-02 14:30N 29°44' W 095°03'0 0.0
2017-Dec-02 14:00N 29°44' W 095°03'0 0.0
2017-Dec-02 13:30N 29°44' W 095°03'0 0.0
2017-Dec-02 13:00N 29°44' W 095°03'0 0.0
2017-Dec-02 12:30N 29°44' W 095°03'0 0.0
2017-Dec-02 12:00N 29°44' W 095°03'0 0.0
2017-Dec-02 11:30N 29°44' W 095°03'0 0.0
2017-Dec-02 11:00N 29°44' W 095°03'0 0.0
2017-Dec-02 10:30N 29°44' W 095°03'0 0.0
2017-Dec-02 10:00N 29°44' W 095°03'0 0.0
2017-Dec-02 09:29N 29°44' W 095°03'0 0.0
2017-Dec-02 09:00N 29°44' W 095°03'0 0.0
2017-Dec-02 08:30N 29°44' W 095°03'0 0.7
2017-Dec-02 08:00N 29°44' W 095°03'3 5.9
2017-Dec-02 07:29N 29°46' W 095°06'1 1.2
2017-Dec-02 07:00N 29°47' W 095°06'0 0.0
2017-Dec-01 14:48N 29°47' W 095°06'0 0.3
2017-Dec-01 14:30N 29°47' W 095°06'  
Track history (hours):
 
Tides and Currents Weather Stations Pressure Air Temp Water Temp Dewpoint Dewpoint Depression Visibility Wind Speed Wind Dir Waves Ship Positions

Diablo

Owner: Harley Marine Services, Inc, Seattle, WA. More information available from US FCC via Universal Licensing System and Coast Guard Vessel Documentation Center.

Last reported at 2017-Dec-11 14:15 UTC. Time now 2017-Dec-14 00:28 UTC.
Position N 29°47' W 095°06'.

Length 24 m; draft 2.6 m.

Type: Tug. MMSI: 367512880.

Date/timePositionNaut miles runAvg speedWind from/ knotsBaromVisibWave heightAir tempDewpointWater temp
2017-Dec-11 14:15N 29°47' W 095°06'0 0.0
2017-Dec-11 14:01N 29°47' W 095°06'0 0.0
2017-Dec-11 13:31N 29°47' W 095°06'0 0.0
2017-Dec-11 12:48N 29°47' W 095°06'0 0.0
2017-Dec-11 12:21N 29°47' W 095°06'0 0.0
2017-Dec-11 11:57N 29°47' W 095°06'0 0.0
2017-Dec-11 11:30N 29°47' W 095°06'0 0.0
2017-Dec-11 10:27N 29°47' W 095°06'0 0.0
2017-Dec-11 09:15N 29°47' W 095°06'0 0.0
2017-Dec-11 08:48N 29°47' W 095°06'0 0.0
2017-Dec-11 06:51N 29°47' W 095°06'0 0.0
2017-Dec-11 06:18N 29°47' W 095°06'0 0.0
2017-Dec-11 05:48N 29°47' W 095°06'0 0.0
2017-Dec-11 05:21N 29°47' W 095°06'0 0.0
2017-Dec-11 02:51N 29°47' W 095°06'0 0.0
2017-Dec-11 02:21N 29°47' W 095°06'0 0.0
2017-Dec-11 00:45N 29°47' W 095°06'0 0.0
2017-Dec-11 00:24N 29°47' W 095°06'0 0.0
2017-Dec-10 22:42N 29°47' W 095°06'0 0.0
2017-Dec-10 22:23N 29°47' W 095°06'0 0.0
2017-Dec-10 21:57N 29°47' W 095°06'0 0.0
2017-Dec-10 21:25N 29°47' W 095°06'0 0.0
2017-Dec-10 20:57N 29°47' W 095°06'0 0.0
2017-Dec-10 20:22N 29°47' W 095°06'0 0.0
2017-Dec-10 19:58N 29°47' W 095°06'0 0.0
2017-Dec-10 19:30N 29°47' W 095°06'0 0.0
2017-Dec-10 18:59N 29°47' W 095°06'0 0.0
2017-Dec-10 18:19N 29°47' W 095°06'0 0.0
2017-Dec-10 17:48N 29°47' W 095°06'0 0.0
2017-Dec-10 17:19N 29°47' W 095°06'0 0.0
2017-Dec-10 16:54N 29°47' W 095°06'0 0.0
2017-Dec-10 16:27N 29°47' W 095°06'0 0.0
2017-Dec-10 15:23N 29°47' W 095°06'0 0.0
2017-Dec-10 15:00N 29°47' W 095°06'0 0.0
2017-Dec-10 14:30N 29°47' W 095°06'0 0.0
2017-Dec-10 13:59N 29°47' W 095°06'0 0.0
2017-Dec-10 13:30N 29°47' W 095°06'1 3.0
2017-Dec-10 13:00N 29°45' W 095°06'4 7.5
2017-Dec-10 12:30N 29°45' W 095°10'4 7.7
2017-Dec-10 11:59N 29°43' W 095°14'1 2.9
2017-Dec-10 11:30N 29°44' W 095°16'0 0.0
2017-Dec-10 11:00N 29°44' W 095°16'0 0.0
2017-Dec-10 10:30N 29°44' W 095°16'0 0.0
2017-Dec-10 10:00N 29°44' W 095°16'0 0.0
2017-Dec-10 09:30N 29°44' W 095°16'0 0.0
2017-Dec-10 09:00N 29°44' W 095°16'2 3.4
2017-Dec-10 08:29N 29°43' W 095°14'3 6.8
2017-Dec-10 07:59N 29°45' W 095°10'4 6.8
2017-Dec-10 07:28N 29°45' W 095°06'1 2.8
2017-Dec-10 07:00N 29°46' W 095°06'1 0.0
2017-Dec-09 19:02N 29°47' W 095°06'0 0.2
2017-Dec-09 18:47N 29°47' W 095°06'1 2.8
2017-Dec-09 18:30N 29°46' W 095°06'2 4.7
2017-Dec-09 18:00N 29°45' W 095°04'3 6.5
2017-Dec-09 17:30N 29°42' W 095°01'2 3.1
2017-Dec-09 17:00N 29°41' W 095°00'0 0.0
2017-Dec-09 16:30N 29°41' W 095°00'0 0.0
2017-Dec-09 16:00N 29°41' W 095°00'0 0.0
2017-Dec-09 15:30N 29°41' W 095°00'0 0.0
2017-Dec-09 15:00N 29°41' W 095°00'0 0.0
2017-Dec-09 14:30N 29°41' W 095°00'0 0.0
2017-Dec-09 14:00N 29°41' W 095°00'0 0.0
2017-Dec-09 13:30N 29°41' W 095°00'0 0.0
2017-Dec-09 13:00N 29°41' W 095°00'0 0.0
2017-Dec-09 12:30N 29°41' W 095°00'0 0.0
2017-Dec-09 12:00N 29°41' W 095°00'0 0.0
2017-Dec-09 11:30N 29°41' W 095°00'0 0.0
2017-Dec-09 11:00N 29°41' W 095°00'0 0.0
2017-Dec-09 10:30N 29°41' W 095°00'0 0.0
2017-Dec-09 10:00N 29°41' W 095°00'1 2.4
2017-Dec-09 09:30N 29°42' W 095°00'4 7.2
2017-Dec-09 08:59N 29°44' W 095°04'3 5.3
2017-Dec-09 08:30N 29°44' W 095°07'3 5.7
2017-Dec-09 07:58N 29°45' W 095°10'0 0.0
2017-Dec-09 07:28N 29°45' W 095°10'0 0.0
2017-Dec-09 06:58N 29°45' W 095°10'0 0.0
2017-Dec-09 06:22N 29°45' W 095°10'0 0.0
2017-Dec-09 05:58N 29°45' W 095°10'0 0.0
2017-Dec-09 05:28N 29°45' W 095°10'0 0.0
2017-Dec-09 04:55N 29°45' W 095°10'0 0.0
2017-Dec-09 04:28N 29°45' W 095°10'0 0.0
2017-Dec-09 03:58N 29°45' W 095°10'0 0.0
2017-Dec-09 03:28N 29°45' W 095°10'0 0.0
2017-Dec-09 02:58N 29°45' W 095°10'0 0.0
2017-Dec-09 02:25N 29°45' W 095°10'0 0.0
2017-Dec-09 01:49N 29°45' W 095°10'0 0.0
2017-Dec-09 01:28N 29°45' W 095°10'0 0.0
2017-Dec-09 00:58N 29°45' W 095°10'0 0.0
2017-Dec-08 23:10N 29°45' W 095°10'0 0.0
2017-Dec-08 22:58N 29°45' W 095°10'0 0.0
2017-Dec-08 22:28N 29°45' W 095°10'0 0.0
2017-Dec-08 21:58N 29°45' W 095°10'0 0.0
2017-Dec-08 21:10N 29°45' W 095°10'0 0.0
2017-Dec-08 20:56N 29°45' W 095°10'0 0.0
2017-Dec-08 20:30N 29°45' W 095°10'2 4.8
2017-Dec-08 20:00N 29°44' W 095°07'3 0.1
2017-Dec-08 01:52N 29°47' W 095°06'1 1.6
2017-Dec-08 01:25N 29°46' W 095°06'2 4.4
2017-Dec-08 01:00N 29°44' W 095°07'3 1.5
2017-Dec-07 22:56N 29°45' W 095°10'0 0.0
2017-Dec-07 22:23N 29°45' W 095°10'0 0.0
2017-Dec-07 21:59N 29°45' W 095°10'0 0.0
2017-Dec-07 21:26N 29°45' W 095°10'0 0.0
2017-Dec-07 20:59N 29°45' W 095°10'0 0.0
2017-Dec-07 16:50N 29°45' W 095°10'0 0.2
2017-Dec-07 16:30N 29°45' W 095°10'4 4.0
2017-Dec-07 15:36N 29°46' W 095°06'0 0.1
2017-Dec-07 13:30N 29°46' W 095°06'0 0.0
2017-Dec-07 06:06N 29°46' W 095°06'0 0.0
2017-Dec-07 03:09N 29°46' W 095°06'0 0.1
2017-Dec-07 02:50N 29°46' W 095°06'0 0.9
2017-Dec-07 02:29N 29°45' W 095°06'2 3.3
2017-Dec-07 02:00N 29°44' W 095°07'4 7.3
2017-Dec-07 01:30N 29°45' W 095°11'3 6.0
2017-Dec-07 01:01N 29°43' W 095°14'2 3.6
2017-Dec-07 00:19N 29°44' W 095°17'0 0.0
2017-Dec-06 23:55N 29°44' W 095°17'0 0.0
2017-Dec-06 23:28N 29°44' W 095°17'0 0.0
2017-Dec-06 23:00N 29°44' W 095°17'0 0.0
2017-Dec-06 22:30N 29°44' W 095°17'0 0.0
2017-Dec-06 22:00N 29°44' W 095°17'0 0.0
2017-Dec-06 21:30N 29°44' W 095°17'1 2.0
2017-Dec-06 21:00N 29°44' W 095°16'  
2017-Dec-04 05:14N 29°59' W 090°24'0 0.0
2017-Dec-04 04:50N 29°59' W 090°24'0 0.0
2017-Dec-04 04:26N 29°59' W 090°24'0 0.0
2017-Dec-04 03:44N 29°59' W 090°24'24583.8
2017-Dec-04 00:49N 29°47' W 095°06'1 2.6
2017-Dec-04 00:29N 29°46' W 095°06'3 4.9
2017-Dec-03 23:57N 29°44' W 095°08'3 6.4
2017-Dec-03 23:30N 29°45' W 095°11'0 0.0
2017-Dec-03 23:00N 29°45' W 095°11'0 0.0
2017-Dec-03 22:29N 29°45' W 095°11'0 0.0
2017-Dec-03 22:00N 29°45' W 095°11'0 0.0
2017-Dec-03 21:30N 29°45' W 095°11'0 0.0
2017-Dec-03 21:00N 29°45' W 095°11'0 0.0
2017-Dec-03 20:30N 29°45' W 095°11'0 0.0
2017-Dec-03 19:28N 29°45' W 095°11'0 0.0
2017-Dec-03 18:58N 29°45' W 095°11'0 0.0
2017-Dec-03 18:22N 29°45' W 095°11'0 0.0
2017-Dec-03 17:55N 29°45' W 095°11'0 0.0
2017-Dec-03 17:28N 29°45' W 095°11'0 0.0
2017-Dec-03 16:13N 29°45' W 095°11'0 0.0
2017-Dec-03 15:58N 29°45' W 095°11'0 0.0
2017-Dec-03 15:25N 29°45' W 095°11'0 0.0
2017-Dec-03 14:58N 29°45' W 095°11'0 0.0
2017-Dec-03 14:25N 29°45' W 095°11'0 0.0
2017-Dec-03 13:04N 29°45' W 095°11'0 0.0
2017-Dec-03 12:58N 29°45' W 095°11'0 0.0
2017-Dec-03 12:13N 29°45' W 095°11'0 0.0
2017-Dec-03 10:25N 29°45' W 095°11'0 0.0
2017-Dec-03 01:41N 29°45' W 095°11'0 0.5
2017-Dec-03 01:30N 29°45' W 095°11'3 5.6
2017-Dec-03 01:00N 29°44' W 095°08'3 5.7
2017-Dec-03 00:30N 29°46' W 095°06'1 1.2
2017-Dec-02 23:50N 29°47' W 095°06'0 0.0
2017-Dec-02 23:27N 29°47' W 095°06'0 0.0
2017-Dec-02 22:52N 29°47' W 095°06'0 0.0
2017-Dec-02 20:49N 29°47' W 095°06'0 0.0
2017-Dec-02 20:19N 29°47' W 095°06'0 0.0
2017-Dec-02 19:54N 29°47' W 095°06'0 0.0
2017-Dec-02 17:13N 29°47' W 095°06'1 2.2
2017-Dec-02 16:53N 29°46' W 095°06'1 2.8
2017-Dec-02 16:30N 29°46' W 095°05'2 4.3
2017-Dec-02 15:57N 29°44' W 095°03'0 0.2
2017-Dec-02 15:30N 29°44' W 095°03'0 0.0
2017-Dec-02 15:00N 29°44' W 095°03'0 0.0
2017-Dec-02 14:30N 29°44' W 095°03'0 0.0
2017-Dec-02 14:00N 29°44' W 095°03'0 0.0
2017-Dec-02 13:30N 29°44' W 095°03'0 0.0
2017-Dec-02 13:00N 29°44' W 095°03'0 0.0
2017-Dec-02 12:30N 29°44' W 095°03'0 0.0
2017-Dec-02 12:00N 29°44' W 095°03'0 0.0
2017-Dec-02 11:30N 29°44' W 095°03'0 0.0
2017-Dec-02 11:00N 29°44' W 095°03'0 0.0
2017-Dec-02 10:30N 29°44' W 095°03'0 0.0
2017-Dec-02 10:00N 29°44' W 095°03'0 0.0
2017-Dec-02 09:29N 29°44' W 095°03'0 0.0
2017-Dec-02 09:00N 29°44' W 095°03'0 0.0
2017-Dec-02 08:30N 29°44' W 095°03'0 0.7
2017-Dec-02 08:00N 29°44' W 095°03'3 5.9
2017-Dec-02 07:29N 29°46' W 095°06'1 1.2
2017-Dec-02 07:00N 29°47' W 095°06'0 0.0
2017-Dec-01 14:48N 29°47' W 095°06'0 0.3
2017-Dec-01 14:30N 29°47' W 095°06'  

Dump ship's entire track history